• Join FlightAware (Why Join?)
  • Login
  • US Flag 
12:37PM EDT


 

Airport Tracker/Info


-or-


 

Live Flight TrackerFlight Track Log ✈ N965LG ✈ 17-Jun-2013 ✈ KMBT - 1A9

Flight Track Log - Related Links

Times and Time Zones

All times are in EDT time to prevent confusion due to time zone crossing. See the N965LG flight status page for this flight to view local times or setup timezone preferences in your user account.

Time Position Orientation Groundspeed Altitude Reporting Facility
EDT Latitude Longitude Course Direction KTS MPH feet Rate Location/Type
11:27AM 35.9667 -86.2333 188° South 213 245 3,300  Level Nashville TRACON
11:28AM 36.0167 -86.2167 15° North 204 235 3,900 780 Climbing Nashville TRACON
11:29AM 36.0167 -86.2667 270° West 178 205 4,900 900 Climbing Nashville TRACON
11:30AM 36.0000 -86.3167 248° West 185 213 5,700 900 Climbing Nashville TRACON
11:31AM 35.9833 -86.3833 253° West 189 217 6,800 1,140 Climbing Nashville TRACON
11:32AM 35.9667 -86.4500 253° West 188 216 8,000 1,140 Climbing Nashville TRACON
11:33AM 35.8218 -86.7353 188° South  Level FlightAware Approximate
11:33AM 35.9442 -86.4958 239° Southwest 172 198 9,100  Level Memphis Center
11:34AM 35.9100 -86.5358 223° Southwest 190 219 10,400 1,320 Climbing Memphis Center
11:35AM 35.8650 -86.5633 206° Southwest 185 213 11,800 1,380 Climbing Memphis Center
11:36AM 35.8194 -86.5783 195° South 177 204 13,200 1,260 Climbing Memphis Center
11:37AM 35.7781 -86.5906 193° South 172 198 14,400 900 Climbing Memphis Center
11:38AM 35.7267 -86.6083 196° South 180 207 15,100 900 Climbing Memphis Center
11:39AM 35.6750 -86.6233 193° South 191 220 16,200 1,020 Climbing Memphis Center
11:40AM 35.6231 -86.6383 193° South 196 226 17,200 840 Climbing Memphis Center
11:41AM 35.5717 -86.6561 196° South 202 232 17,900 360 Climbing Memphis Center
11:42AM 35.5139 -86.6764 196° South 207 238 18,000  Climbing Memphis Center
11:43AM 35.4408 -86.6747 179° South 228 262 18,000  Level Memphis Center
11:44AM 35.3717 -86.6700 177° South 241 277 18,000  Level Memphis Center
11:45AM 35.3028 -86.6681 179° South 249 287 18,000  Level Memphis Center
11:46AM 35.2339 -86.6633 177° South 254 292 18,000  Level Memphis Center
11:47AM 35.1669 -86.6589 177° South 254 292 18,000  Level Memphis Center
11:48AM 35.0981 -86.6542 177° South 254 292 18,000  Level Memphis Center
11:49AM 35.0292 -86.6497 177° South 254 292 18,000  Level Memphis Center
11:50AM 34.9581 -86.6478 179° South 254 292 18,000  Level Memphis Center
11:51AM 34.8892 -86.6431 177° South 254 292 18,000  Level Memphis Center
11:52AM 34.8181 -86.6386 177° South 254 292 18,000  Level Memphis Center
11:53AM 34.7492 -86.6342 177° South 254 292 18,000  Level Memphis Center
11:54AM 34.6825 -86.6447 187° South 254 292 18,000  Level Memphis Center
11:55AM 34.6144 -86.6653 194° South 254 292 18,000  Level Memphis Center
11:56AM 34.5461 -86.6808 191° South 254 292 18,000  Level Memphis Center
11:57AM 34.4814 -86.6972 192° South 254 292 18,000  Level Atlanta Center
11:58AM 34.4144 -86.7128 191° South 254 292 18,000  Level Atlanta Center
11:59AM 34.3472 -86.7283 191° South 249 287 18,000  Level Atlanta Center
12:00PM 34.2781 -86.7436 190° South 249 287 18,000  Level Atlanta Center
12:01PM 34.2128 -86.7617 193° South 249 287 18,000  Level Atlanta Center
12:02PM 34.1478 -86.7772 191° South 249 287 18,000  Level Atlanta Center
12:03PM 34.0806 -86.7978 194° South 244 281 18,000  Level Atlanta Center
12:04PM 34.0156 -86.8131 191° South 244 281 18,000  Level Atlanta Center
12:05PM 33.9483 -86.8283 191° South 244 281 18,000  Level Atlanta Center
12:06PM 33.8811 -86.8489 194° South 244 281 18,000  Level Atlanta Center
12:07PM 33.8142 -86.8642 191° South 244 281 18,000  Level Atlanta Center
12:08PM 33.7456 -86.8492 170° South 239 275 18,000  Level Atlanta Center
12:09PM 33.6792 -86.8297 166° South 239 275 18,000  Level Atlanta Center
12:10PM 33.6106 -86.8125 168° South 244 281 18,000 -240 Level Atlanta Center
12:11PM 33.5381 -86.7928 167° South 256 295 17,600 -720 Descending Atlanta Center
12:12PM 33.4694 -86.7756 168° South 256 295 16,600 -1,080 Descending Atlanta Center
12:13PM 33.3969 -86.7558 167° South 261 300 15,500 -1,020 Descending Atlanta Center
12:14PM 33.3244 -86.7361 167° South 266 306 14,600 -840 Descending Atlanta Center
12:15PM 33.2575 -86.7342 179° South 266 306 13,900 -900 Descending Atlanta Center
12:16PM 33.1867 -86.7269 175° South 261 300 12,800 -1,200 Descending Atlanta Center
12:17PM 33.1158 -86.7272 180° South 256 295 11,500 -960 Descending Atlanta Center
12:18PM 33.0494 -86.7078 166° South 250 288 10,900 -300 Descending Atlanta Center
12:19PM 32.9850 -86.6961 171° South 250 288 11,000 -120 Climbing Atlanta Center
12:20PM 32.9228 -86.6767 165° South 238 274 10,700 -540 Descending Atlanta Center
12:21PM 32.8586 -86.6550 164° South 238 274 10,000 -1,020 Descending Atlanta Center
12:23PM 32.7453 -86.5825 152° Southeast 238 274 7,700 -1,200 Descending Atlanta Center
12:24PM 32.7003 -86.5344 138° Southeast 224 258 6,400 -1,260 Descending Atlanta Center
12:25PM 32.6617 -86.4814 131° Southeast 218 251 5,200 -1,500 Descending Atlanta Center
12:26PM 32.6167 -86.4333 138° Southeast 213 245 3,500 -1,740 Descending Atlanta Center
12:28PM 32.5542 -86.4780 211° Southwest  Level FlightAware Approximate
12:35PM 32.4333 -86.5000 168° South  Level FlightAware Approximate
12:36PM 32.4387 -86.5127 168° South  Level Estimated